createdAt,value
2022-08-30T00:00:53.430Z,57.98
2022-08-30T00:01:53.420Z,57.88
2022-08-30T00:02:53.510Z,57.88
2022-08-30T00:03:53.515Z,58.07
2022-08-30T00:04:53.389Z,58.38
2022-08-30T00:05:53.383Z,58.28
2022-08-30T00:06:53.376Z,58.41
2022-08-30T00:07:53.395Z,58.41
2022-08-30T00:08:53.393Z,58.61
2022-08-30T00:09:53.373Z,58.71
2022-08-30T00:10:53.330Z,58.91
2022-08-30T00:11:53.327Z,58.81
2022-08-30T00:12:53.322Z,59.22
2022-08-30T00:13:53.304Z,59.11
2022-08-30T00:14:53.287Z,59.22
2022-08-30T00:15:53.392Z,59.52
2022-08-30T00:16:53.268Z,59.52
2022-08-30T00:17:53.280Z,59.34
2022-08-30T00:18:53.258Z,59.22
2022-08-30T00:19:53.258Z,59.44
2022-08-30T00:20:53.232Z,59.44
2022-08-30T00:21:53.224Z,59.44
2022-08-30T00:22:53.233Z,59.44
2022-08-30T00:23:53.191Z,59.14
2022-08-30T00:24:53.187Z,59.55
2022-08-30T00:25:53.170Z,59.42
2022-08-30T00:26:53.164Z,59.31
2022-08-30T00:27:53.151Z,59.55
2022-08-30T00:28:53.157Z,59.64
2022-08-30T00:29:53.130Z,59.75
2022-08-30T00:30:53.199Z,59.75
2022-08-30T00:31:53.163Z,59.55
2022-08-30T00:32:53.099Z,59.64
2022-08-30T00:33:53.102Z,59.84
2022-08-30T00:34:53.089Z,59.64
2022-08-30T00:35:53.089Z,59.64
2022-08-30T00:36:53.075Z,59.95
2022-08-30T00:37:53.057Z,59.95
2022-08-30T00:38:53.050Z,59.84
2022-08-30T00:39:53.026Z,60.05
2022-08-30T00:40:53.019Z,60.05
2022-08-30T00:41:53.006Z,60.05
2022-08-30T00:42:58.119Z,59.95
2022-08-30T00:43:54.003Z,59.95
2022-08-30T00:44:52.972Z,60.05
2022-08-30T00:45:52.992Z,60.25
2022-08-30T00:46:52.952Z,60.25
2022-08-30T00:47:52.954Z,60.25
2022-08-30T00:48:52.950Z,60.45
2022-08-30T00:49:52.922Z,60.45
2022-08-30T00:50:52.913Z,60.15
2022-08-30T00:51:52.909Z,60.55
2022-08-30T00:52:52.889Z,60.85
2022-08-30T00:53:52.898Z,60.75
2022-08-30T00:54:52.868Z,60.78
2022-08-30T00:55:52.877Z,60.98
2022-08-30T00:56:52.856Z,60.98
2022-08-30T00:57:52.839Z,60.58
2022-08-30T00:58:52.852Z,60.48
2022-08-30T00:59:52.816Z,60.48
2022-08-30T01:00:52.814Z,60.68
2022-08-30T01:01:52.898Z,60.48
2022-08-30T01:02:52.841Z,60.88
2022-08-30T01:03:52.795Z,60.98
2022-08-30T01:04:52.766Z,60.98
2022-08-30T01:05:52.758Z,60.58
2022-08-30T01:06:52.743Z,61.08
2022-08-30T01:07:52.732Z,61.69
2022-08-30T01:08:52.739Z,61.49
2022-08-30T01:09:52.712Z,61.49
2022-08-30T01:10:52.710Z,61.89
2022-08-30T01:11:52.708Z,61.92
2022-08-30T01:12:52.700Z,62.12
2022-08-30T01:13:52.671Z,62.02
2022-08-30T01:14:52.696Z,62.12
2022-08-30T01:15:52.712Z,62.12
2022-08-30T01:16:52.636Z,62.12
2022-08-30T01:17:52.643Z,62.32
2022-08-30T01:18:52.618Z,62.22
2022-08-30T01:19:52.610Z,62.43
2022-08-30T01:20:52.602Z,62.32
2022-08-30T01:21:52.617Z,62.32
2022-08-30T01:22:52.610Z,62.43
2022-08-30T01:23:52.567Z,62.52
2022-08-30T01:24:52.558Z,62.63
2022-08-30T01:25:52.547Z,62.52
2022-08-30T01:26:52.561Z,62.63
2022-08-30T01:27:52.528Z,62.52
2022-08-30T01:28:52.528Z,62.63
2022-08-30T01:29:52.502Z,62.83
2022-08-30T01:30:52.514Z,62.63
2022-08-30T01:31:52.480Z,62.63
2022-08-30T01:32:52.469Z,62.63
2022-08-30T01:33:52.483Z,62.63
2022-08-30T01:34:52.450Z,62.93
2022-08-30T01:35:52.452Z,62.80
2022-08-30T01:36:52.427Z,62.83
2022-08-30T01:37:52.423Z,63.03
2022-08-30T01:38:52.571Z,63.03
2022-08-30T01:39:52.425Z,63.23
2022-08-30T01:40:52.396Z,63.13
2022-08-30T01:41:52.376Z,63.33
2022-08-30T01:42:52.365Z,63.33
2022-08-30T01:43:52.370Z,63.53
2022-08-30T01:44:52.342Z,63.33
2022-08-30T01:45:52.414Z,63.23
2022-08-30T01:46:52.336Z,63.13
2022-08-30T01:47:52.325Z,63.33
2022-08-30T01:48:53.984Z,63.23
2022-08-30T01:49:52.294Z,63.13
2022-08-30T01:50:52.282Z,63.20
2022-08-30T01:52:00.471Z,63.33
2022-08-30T01:52:53.261Z,63.43
2022-08-30T01:53:52.265Z,63.53
2022-08-30T01:54:52.243Z,63.53
2022-08-30T01:55:52.231Z,63.64
2022-08-30T01:56:52.216Z,63.43
2022-08-30T01:57:52.209Z,63.53
2022-08-30T01:58:52.238Z,63.84
2022-08-30T01:59:52.218Z,63.84
2022-08-30T02:00:52.186Z,64.14
2022-08-30T02:01:52.243Z,63.93
2022-08-30T02:02:52.166Z,63.93
2022-08-30T02:03:52.202Z,63.53
2022-08-30T02:04:52.140Z,63.73
2022-08-30T02:05:52.141Z,63.84
2022-08-30T02:06:52.139Z,63.93
2022-08-30T02:07:52.118Z,63.93
2022-08-30T02:08:52.096Z,63.93
2022-08-30T02:09:52.084Z,64.04
2022-08-30T02:10:52.070Z,64.04
2022-08-30T02:11:52.060Z,64.04
2022-08-30T02:12:52.092Z,64.04
2022-08-30T02:13:52.049Z,64.14
2022-08-30T02:14:52.046Z,63.93
2022-08-30T02:15:52.021Z,64.04
2022-08-30T02:16:52.088Z,64.24
2022-08-30T02:17:52.026Z,63.73
2022-08-30T02:18:52.011Z,63.93
2022-08-30T02:19:52.036Z,64.34
2022-08-30T02:20:51.970Z,64.54
2022-08-30T02:21:51.959Z,64.14
2022-08-30T02:22:51.951Z,63.84
2022-08-30T02:23:51.949Z,64.14
2022-08-30T02:24:51.927Z,64.14
2022-08-30T02:25:51.917Z,64.14
2022-08-30T02:26:51.911Z,64.24
2022-08-30T02:27:51.911Z,64.14
2022-08-30T02:28:51.950Z,64.04
2022-08-30T02:29:51.873Z,64.04
2022-08-30T02:30:51.990Z,64.14
2022-08-30T02:31:51.856Z,64.24
2022-08-30T02:32:51.846Z,64.24
2022-08-30T02:33:51.851Z,64.44
2022-08-30T02:34:51.820Z,64.24
2022-08-30T02:35:51.809Z,64.14
2022-08-30T02:36:51.801Z,64.54
2022-08-30T02:37:51.805Z,64.44
2022-08-30T02:38:51.783Z,64.75
2022-08-30T02:39:51.768Z,64.54
2022-08-30T02:40:51.778Z,64.64
2022-08-30T02:41:51.753Z,64.87
2022-08-30T02:42:51.752Z,64.98
2022-08-30T02:43:51.768Z,65.08
2022-08-30T02:44:51.720Z,65.28
2022-08-30T02:45:51.807Z,65.28
2022-08-30T02:46:51.693Z,65.48
2022-08-30T02:47:51.684Z,65.48
2022-08-30T02:48:51.687Z,65.58
2022-08-30T02:49:51.664Z,65.71
2022-08-30T02:50:51.665Z,65.81
2022-08-30T02:51:51.645Z,65.92
2022-08-30T02:52:51.651Z,66.12
2022-08-30T02:53:51.658Z,66.12
2022-08-30T02:54:51.663Z,66.22
2022-08-30T02:55:51.620Z,66.22
2022-08-30T02:56:51.596Z,66.32
2022-08-30T02:57:51.591Z,66.62
2022-08-30T02:58:51.581Z,66.72
2022-08-30T02:59:51.558Z,66.72
2022-08-30T03:00:51.623Z,66.65
2022-08-30T03:01:51.537Z,66.62
2022-08-30T03:02:51.526Z,66.86
2022-08-30T03:03:51.607Z,66.96
2022-08-30T03:04:51.520Z,66.86
2022-08-30T03:05:51.514Z,67.06
2022-08-30T03:06:51.486Z,67.16
2022-08-30T03:07:51.474Z,67.36
2022-08-30T03:08:51.480Z,67.26
2022-08-30T03:09:51.465Z,67.26
2022-08-30T03:10:51.473Z,67.36
2022-08-30T03:11:51.441Z,67.46
2022-08-30T03:12:51.421Z,67.46
2022-08-30T03:13:51.429Z,67.56
2022-08-30T03:14:51.402Z,67.56
2022-08-30T03:15:51.391Z,67.66
2022-08-30T03:16:51.447Z,67.66
2022-08-30T03:17:51.384Z,67.66
2022-08-30T03:18:51.382Z,67.76
2022-08-30T03:19:51.353Z,67.80
2022-08-30T03:20:54.617Z,67.86
2022-08-30T03:21:51.332Z,67.97
2022-08-30T03:22:51.331Z,67.90
2022-08-30T03:23:51.337Z,68.00
2022-08-30T03:24:51.298Z,68.00
2022-08-30T03:25:51.289Z,68.10
2022-08-30T03:26:51.277Z,68.20
2022-08-30T03:27:51.268Z,68.51
2022-08-30T03:28:51.270Z,68.51
2022-08-30T03:29:51.247Z,68.40
2022-08-30T03:30:51.240Z,68.40
2022-08-30T03:31:53.011Z,68.51
2022-08-30T03:32:51.452Z,68.60
2022-08-30T03:33:51.239Z,68.51
2022-08-30T03:34:51.226Z,68.51
2022-08-30T03:35:51.186Z,68.71
2022-08-30T03:36:51.181Z,68.60
2022-08-30T03:37:56.147Z,68.60
2022-08-30T03:38:52.194Z,68.51
2022-08-30T03:39:51.143Z,68.71
2022-08-30T03:40:51.135Z,68.71
2022-08-30T03:41:51.126Z,68.91
2022-08-30T03:42:51.111Z,68.80
2022-08-30T03:43:51.108Z,69.01
2022-08-30T03:44:51.110Z,69.11
2022-08-30T03:45:51.162Z,69.11
2022-08-30T03:46:51.072Z,69.11
2022-08-30T03:47:51.060Z,69.11
2022-08-30T03:48:51.047Z,69.31
2022-08-30T03:49:51.054Z,69.21
2022-08-30T03:50:51.029Z,69.21
2022-08-30T03:51:51.021Z,69.11
2022-08-30T03:52:51.008Z,68.91
2022-08-30T03:53:51.001Z,69.21
2022-08-30T03:54:50.999Z,69.21
2022-08-30T03:55:50.986Z,69.24
2022-08-30T03:56:50.977Z,69.45
2022-08-30T03:57:50.959Z,69.65
2022-08-30T03:58:50.956Z,69.65
2022-08-30T03:59:50.953Z,69.65
2022-08-30T04:00:51.054Z,69.75
2022-08-30T04:01:51.001Z,70.05
2022-08-30T04:02:50.929Z,70.05
2022-08-30T04:03:50.897Z,70.15
2022-08-30T04:04:50.899Z,70.15
2022-08-30T04:05:50.878Z,69.95
2022-08-30T04:06:50.864Z,70.05
2022-08-30T04:07:50.853Z,70.15
2022-08-30T04:08:50.847Z,70.36
2022-08-30T04:09:50.853Z,70.25
2022-08-30T04:10:50.826Z,70.25
2022-08-30T04:11:50.814Z,70.46
2022-08-30T04:12:50.835Z,70.36
2022-08-30T04:13:50.815Z,70.36
2022-08-30T04:14:50.817Z,70.36
2022-08-30T04:15:50.779Z,70.36
2022-08-30T04:16:50.808Z,70.15
2022-08-30T04:17:50.753Z,70.05
2022-08-30T04:18:50.761Z,70.15
2022-08-30T04:19:50.745Z,70.05
2022-08-30T04:20:50.762Z,70.05
2022-08-30T04:21:50.714Z,70.15
2022-08-30T04:22:50.714Z,70.05
2022-08-30T04:23:50.706Z,69.95
2022-08-30T04:24:50.699Z,69.95
2022-08-30T04:25:50.685Z,70.36
2022-08-30T04:26:50.668Z,70.25
2022-08-30T04:27:50.648Z,70.25
2022-08-30T04:28:50.637Z,70.15
2022-08-30T04:29:50.643Z,70.25
2022-08-30T04:30:50.617Z,70.46
2022-08-30T04:31:50.685Z,70.36
2022-08-30T04:32:50.605Z,70.56
2022-08-30T04:33:50.596Z,70.46
2022-08-30T04:34:50.621Z,70.66
2022-08-30T04:35:50.569Z,70.66
2022-08-30T04:36:50.573Z,70.76
2022-08-30T04:37:50.567Z,70.76
2022-08-30T04:38:50.637Z,70.76
2022-08-30T04:39:50.545Z,70.56
2022-08-30T04:40:50.521Z,70.36
2022-08-30T04:41:50.528Z,69.55
2022-08-30T04:42:50.496Z,69.04
2022-08-30T04:43:50.493Z,69.04
2022-08-30T04:44:50.497Z,68.94
2022-08-30T04:45:50.537Z,69.34
2022-08-30T04:46:50.457Z,69.14
2022-08-30T04:47:50.445Z,69.24
2022-08-30T04:48:50.439Z,69.24
2022-08-30T04:49:50.440Z,69.75
2022-08-30T04:50:50.415Z,69.34
2022-08-30T04:51:50.428Z,69.34
2022-08-30T04:52:50.399Z,69.45
2022-08-30T04:53:50.382Z,69.95
2022-08-30T04:54:50.420Z,70.15
2022-08-30T04:55:50.366Z,70.46
2022-08-30T04:56:50.356Z,70.36
2022-08-30T04:57:50.344Z,70.46
2022-08-30T04:58:50.347Z,70.46
2022-08-30T04:59:50.339Z,70.25
2022-08-30T05:00:51.108Z,70.25
2022-08-30T05:01:50.404Z,70.56
2022-08-30T05:02:50.655Z,70.56
2022-08-30T05:03:50.280Z,70.46
2022-08-30T05:04:50.296Z,70.66
2022-08-30T05:05:50.262Z,70.56
2022-08-30T05:06:50.258Z,70.66
2022-08-30T05:07:50.238Z,70.89
2022-08-30T05:08:51.050Z,70.79
2022-08-30T05:09:50.242Z,71.00
2022-08-30T05:10:50.245Z,71.09
2022-08-30T05:11:50.198Z,71.30
2022-08-30T05:12:50.206Z,71.30
2022-08-30T05:13:50.187Z,71.50
2022-08-30T05:14:50.171Z,71.40
2022-08-30T05:15:50.273Z,71.70
2022-08-30T05:16:50.150Z,71.91
2022-08-30T05:17:50.144Z,72.04
2022-08-30T05:18:50.145Z,72.14
2022-08-30T05:19:50.117Z,72.04
2022-08-30T05:20:50.123Z,72.04
2022-08-30T05:21:50.097Z,71.84
2022-08-30T05:22:53.262Z,71.84
2022-08-30T05:23:50.076Z,72.04
2022-08-30T05:24:50.065Z,72.55
2022-08-30T05:25:50.072Z,72.48
2022-08-30T05:26:50.104Z,72.48
2022-08-30T05:27:50.031Z,72.48
2022-08-30T05:28:50.032Z,72.58
2022-08-30T05:29:50.011Z,72.78
2022-08-30T05:30:50.154Z,72.68
2022-08-30T05:31:50.085Z,72.68
2022-08-30T05:32:50.002Z,72.78
2022-08-30T05:33:49.977Z,72.99
2022-08-30T05:34:49.963Z,72.78
2022-08-30T05:35:49.967Z,72.99
2022-08-30T05:36:49.941Z,72.68
2022-08-30T05:37:49.934Z,73.19
2022-08-30T05:38:49.934Z,73.29
2022-08-30T05:39:51.670Z,73.59
2022-08-30T05:40:49.955Z,73.09
2022-08-30T05:41:49.906Z,72.78
2022-08-30T05:42:49.882Z,72.88
2022-08-30T05:43:49.869Z,73.66
2022-08-30T05:44:49.861Z,73.56
2022-08-30T05:45:49.866Z,73.56
2022-08-30T05:46:49.844Z,73.86
2022-08-30T05:47:49.833Z,73.96
2022-08-30T05:48:49.822Z,73.66
2022-08-30T05:49:49.839Z,73.63
2022-08-30T05:50:49.816Z,73.63
2022-08-30T05:51:49.807Z,73.63
2022-08-30T05:52:49.787Z,73.83
2022-08-30T05:53:49.772Z,73.63
2022-08-30T05:54:49.764Z,73.63
2022-08-30T05:55:49.765Z,73.32
2022-08-30T05:56:49.736Z,73.08
2022-08-30T05:57:49.730Z,73.49
2022-08-30T05:58:49.777Z,73.49
2022-08-30T05:59:49.706Z,72.99
2022-08-30T06:00:49.715Z,72.72
2022-08-30T06:01:49.764Z,72.61
2022-08-30T06:02:49.718Z,73.02
2022-08-30T06:03:49.670Z,73.63
2022-08-30T06:04:49.670Z,73.83
2022-08-30T06:05:49.723Z,74.54
2022-08-30T06:06:49.635Z,74.54
2022-08-30T06:07:49.628Z,74.63
2022-08-30T06:08:49.619Z,74.54
2022-08-30T06:09:49.604Z,74.13
2022-08-30T06:10:49.594Z,74.33
2022-08-30T06:11:49.624Z,74.03
2022-08-30T06:12:49.584Z,73.93
2022-08-30T06:13:49.581Z,73.93
2022-08-30T06:14:49.567Z,73.52
2022-08-30T06:15:49.633Z,73.63
2022-08-30T06:16:49.557Z,73.93
2022-08-30T06:17:49.520Z,74.03
2022-08-30T06:18:49.511Z,73.72
2022-08-30T06:19:49.498Z,73.43
2022-08-30T06:20:50.173Z,73.32
2022-08-30T06:21:49.517Z,72.72
2022-08-30T06:22:49.481Z,72.21
2022-08-30T06:23:49.478Z,74.13
2022-08-30T06:24:58.020Z,72.88
2022-08-30T06:25:50.453Z,72.08
2022-08-30T06:26:49.430Z,72.68
2022-08-30T06:27:53.287Z,72.78
2022-08-30T06:28:50.424Z,72.58
2022-08-30T06:29:49.397Z,72.28
2022-08-30T06:30:49.407Z,73.08
2022-08-30T06:31:49.479Z,73.08
2022-08-30T06:32:49.371Z,72.88
2022-08-30T06:33:49.377Z,72.64
2022-08-30T06:34:49.351Z,71.84
2022-08-30T06:35:58.719Z,72.34
2022-08-30T06:36:50.324Z,73.25
2022-08-30T06:37:49.322Z,72.85
2022-08-30T06:38:49.306Z,72.44
2022-08-30T06:39:49.303Z,71.94
2022-08-30T06:40:49.304Z,72.34
2022-08-30T06:41:49.274Z,72.44
2022-08-30T06:42:49.267Z,72.04
2022-08-30T06:43:49.445Z,72.24
2022-08-30T06:44:49.252Z,72.24
2022-08-30T06:45:49.278Z,72.04
2022-08-30T06:46:49.305Z,72.14
2022-08-30T06:47:49.314Z,72.44
2022-08-30T06:48:49.203Z,72.14
2022-08-30T06:49:49.194Z,72.24
2022-08-30T06:50:49.200Z,72.31
2022-08-30T06:51:49.177Z,72.91
2022-08-30T06:52:49.165Z,72.91
2022-08-30T06:53:49.158Z,72.91
2022-08-30T06:54:49.149Z,72.31
2022-08-30T06:55:49.174Z,71.91
2022-08-30T06:56:58.226Z,71.47
2022-08-30T06:57:50.109Z,71.37
2022-08-30T06:58:49.151Z,71.87
2022-08-30T06:59:49.148Z,72.58
2022-08-30T07:00:49.080Z,72.44
2022-08-30T07:01:49.137Z,72.14
2022-08-30T07:02:49.132Z,71.84
2022-08-30T07:03:49.047Z,72.04
2022-08-30T07:04:49.039Z,72.04
2022-08-30T07:05:49.028Z,72.14
2022-08-30T07:06:49.048Z,71.40
2022-08-30T07:07:49.030Z,71.40
2022-08-30T07:08:49.001Z,71.40
2022-08-30T07:09:49.003Z,70.89
2022-08-30T07:10:48.981Z,71.10
2022-08-30T07:11:48.978Z,71.60
2022-08-30T07:12:48.977Z,69.99
2022-08-30T07:13:48.943Z,70.09
2022-08-30T07:14:48.933Z,71.91
2022-08-30T07:15:48.986Z,70.79
2022-08-30T07:16:51.266Z,70.76
2022-08-30T07:17:48.907Z,69.55
2022-08-30T07:18:48.908Z,69.25
2022-08-30T07:19:48.911Z,69.25
2022-08-30T07:20:48.873Z,69.05
2022-08-30T07:21:48.883Z,69.01
2022-08-30T07:22:48.850Z,68.71
2022-08-30T07:23:53.062Z,69.01
2022-08-30T07:24:48.835Z,69.01
2022-08-30T07:25:48.816Z,69.12
2022-08-30T07:26:48.861Z,69.09
2022-08-30T07:27:48.814Z,69.29
2022-08-30T07:28:48.790Z,69.69
2022-08-30T07:29:49.777Z,69.49
2022-08-30T07:30:48.790Z,68.95
2022-08-30T07:31:48.788Z,67.64
2022-08-30T07:32:48.748Z,68.04
2022-08-30T07:33:48.737Z,66.74
2022-08-30T07:34:48.724Z,67.44
2022-08-30T07:35:49.572Z,67.41
2022-08-30T07:36:48.718Z,67.71
2022-08-30T07:37:48.713Z,66.80
2022-08-30T07:38:48.681Z,66.30
2022-08-30T07:39:48.707Z,68.11
2022-08-30T07:40:48.706Z,65.77
2022-08-30T07:41:48.673Z,65.67
2022-08-30T07:42:48.649Z,65.56
2022-08-30T07:43:48.633Z,65.56
2022-08-30T07:44:48.622Z,66.03
2022-08-30T07:45:48.612Z,66.24
2022-08-30T07:46:48.641Z,65.33
2022-08-30T07:47:48.591Z,64.83
2022-08-30T07:48:48.578Z,64.93
2022-08-30T07:49:48.639Z,65.20
2022-08-30T07:50:48.579Z,62.89
2022-08-30T07:51:48.573Z,62.99
2022-08-30T07:52:48.558Z,62.59
2022-08-30T07:53:48.531Z,63.39
2022-08-30T07:54:48.535Z,63.26
2022-08-30T07:55:48.508Z,63.46
2022-08-30T07:56:48.516Z,62.46
2022-08-30T07:57:48.488Z,62.76
2022-08-30T07:58:48.757Z,62.46
2022-08-30T07:59:48.480Z,62.23
2022-08-30T08:00:48.461Z,61.52
2022-08-30T08:01:48.536Z,61.83
2022-08-30T08:02:48.539Z,61.22
2022-08-30T08:03:48.430Z,61.72
2022-08-30T08:04:48.427Z,62.53
2022-08-30T08:05:48.412Z,61.72
2022-08-30T08:06:48.415Z,61.22
2022-08-30T08:07:48.385Z,60.93
2022-08-30T08:08:48.375Z,60.52
2022-08-30T08:09:48.391Z,61.10
2022-08-30T08:10:48.380Z,61.60
2022-08-30T08:11:48.437Z,61.50
2022-08-30T08:12:48.385Z,61.30
2022-08-30T08:13:53.304Z,60.89
2022-08-30T08:14:49.317Z,61.19
2022-08-30T08:15:48.357Z,60.49
2022-08-30T08:16:48.309Z,61.30
2022-08-30T08:17:48.281Z,60.69
2022-08-30T08:18:48.277Z,61.10
2022-08-30T08:19:48.263Z,60.69
2022-08-30T08:20:48.289Z,61.00
2022-08-30T08:21:50.439Z,60.69
2022-08-30T08:22:49.236Z,60.89
2022-08-30T08:23:48.241Z,62.70
2022-08-30T08:24:48.211Z,61.19
2022-08-30T08:25:48.206Z,61.19
2022-08-30T08:26:48.216Z,61.30
2022-08-30T08:27:48.181Z,61.60
2022-08-30T08:28:48.173Z,61.30
2022-08-30T08:29:48.165Z,61.10
2022-08-30T08:30:48.467Z,61.07
2022-08-30T08:31:48.189Z,60.77
2022-08-30T08:32:48.147Z,60.66
2022-08-30T08:33:48.141Z,60.27
2022-08-30T08:34:48.118Z,60.36
2022-08-30T08:35:48.115Z,60.86
2022-08-30T08:36:48.088Z,60.74
2022-08-30T08:37:48.092Z,61.84
2022-08-30T08:38:48.069Z,61.44
2022-08-30T08:39:48.055Z,60.94
2022-08-30T08:40:48.046Z,60.53
2022-08-30T08:41:48.033Z,59.31
2022-08-30T08:42:48.064Z,59.41
2022-08-30T08:43:48.018Z,60.01
2022-08-30T08:45:48.004Z,59.00
2022-08-30T08:46:47.983Z,59.00
2022-08-30T08:47:47.984Z,59.91
2022-08-30T08:48:59.607Z,58.37
2022-08-30T08:49:48.966Z,58.37
2022-08-30T08:50:47.943Z,57.37
2022-08-30T08:51:47.927Z,57.17
2022-08-30T08:52:47.960Z,57.68
2022-08-30T08:53:47.935Z,57.98
2022-08-30T08:54:47.906Z,57.37
2022-08-30T08:56:47.878Z,58.25
2022-08-30T08:57:47.864Z,57.75
2022-08-30T08:58:47.881Z,56.95
2022-08-30T08:59:47.846Z,56.77
2022-08-30T09:00:47.840Z,57.48
2022-08-30T09:01:47.868Z,58.07
2022-08-30T09:02:47.819Z,57.87
2022-08-30T09:03:47.814Z,57.68
2022-08-30T09:04:47.868Z,57.17
2022-08-30T09:05:47.785Z,56.95
2022-08-30T09:06:47.770Z,57.05
2022-08-30T09:07:47.763Z,58.35
2022-08-30T09:08:47.776Z,57.55
2022-08-30T09:09:47.744Z,57.55
2022-08-30T09:10:50.902Z,55.65
2022-08-30T09:11:47.726Z,55.65
2022-08-30T09:12:47.786Z,55.52
2022-08-30T09:13:47.722Z,55.22
2022-08-30T09:14:47.694Z,55.52
2022-08-30T09:15:53.706Z,54.32
2022-08-30T09:16:48.673Z,54.72
2022-08-30T09:17:47.664Z,55.42
2022-08-30T09:18:50.240Z,54.79
2022-08-30T09:19:48.671Z,54.90
2022-08-30T09:20:47.628Z,54.79
2022-08-30T09:21:47.620Z,54.99
2022-08-30T09:22:48.621Z,53.99
2022-08-30T09:23:47.614Z,53.79
2022-08-30T09:24:47.585Z,53.67
2022-08-30T09:25:47.610Z,53.07
2022-08-30T09:26:47.576Z,53.07
2022-08-30T09:27:47.578Z,53.37
2022-08-30T09:29:48.540Z,52.64
2022-08-30T09:30:47.570Z,51.84
2022-08-30T09:31:47.518Z,52.44
2022-08-30T09:32:47.505Z,51.75
2022-08-30T09:33:47.513Z,53.02
2022-08-30T09:34:47.492Z,50.62
2022-08-30T09:35:47.499Z,51.22
2022-08-30T09:36:47.476Z,51.50
2022-08-30T09:37:47.473Z,50.70
2022-08-30T09:38:47.483Z,51.59
2022-08-30T09:39:47.434Z,51.59
2022-08-30T09:40:47.433Z,51.29
2022-08-30T09:41:47.414Z,50.00
2022-08-30T09:42:47.405Z,50.77
2022-08-30T09:43:47.417Z,50.67
2022-08-30T09:44:47.387Z,50.77
2022-08-30T09:45:47.438Z,50.17
2022-08-30T09:46:47.361Z,49.48
2022-08-30T09:47:47.349Z,49.77
2022-08-30T09:48:47.430Z,48.95
2022-08-30T09:49:47.339Z,48.05
2022-08-30T09:50:47.348Z,48.85
2022-08-30T09:51:47.324Z,48.75
2022-08-30T09:52:49.945Z,48.05
2022-08-30T09:54:07.363Z,48.13
2022-08-30T09:54:48.290Z,48.03
2022-08-30T09:55:47.269Z,47.44
2022-08-30T09:56:47.256Z,48.23
2022-08-30T09:57:47.251Z,47.83
2022-08-30T09:58:47.296Z,48.03
2022-08-30T09:59:47.238Z,47.33
2022-08-30T10:00:47.235Z,45.84
2022-08-30T10:01:47.218Z,47.31
2022-08-30T10:02:47.194Z,48.21
2022-08-30T10:03:47.198Z,45.92
2022-08-30T10:04:47.173Z,46.31
2022-08-30T10:05:47.168Z,46.81
2022-08-30T10:06:47.172Z,48.11
2022-08-30T10:07:47.208Z,47.61
2022-08-30T10:08:47.170Z,46.69
2022-08-30T10:09:47.127Z,47.29
2022-08-30T10:10:47.123Z,47.89
2022-08-30T10:11:47.103Z,48.28
2022-08-30T10:12:47.102Z,47.49
2022-08-30T10:13:47.084Z,47.59
2022-08-30T10:14:47.085Z,47.86
2022-08-30T10:15:47.062Z,47.47
2022-08-30T10:16:47.047Z,46.97
2022-08-30T10:17:47.053Z,46.97
2022-08-30T10:18:47.045Z,48.07
2022-08-30T10:19:47.053Z,48.36
2022-08-30T10:20:47.058Z,47.56
2022-08-30T10:21:47.007Z,46.37
2022-08-30T10:22:46.989Z,46.37
2022-08-30T10:23:46.978Z,46.47
2022-08-30T10:24:47.006Z,46.47
2022-08-30T10:25:46.957Z,46.37
2022-08-30T10:26:46.949Z,45.87
2022-08-30T10:27:46.942Z,45.48
2022-08-30T10:28:47.150Z,45.55
2022-08-30T10:29:46.972Z,45.36
2022-08-30T10:30:46.908Z,45.06
2022-08-30T10:31:46.924Z,45.15
2022-08-30T10:32:46.903Z,44.56
2022-08-30T10:33:46.904Z,44.36
2022-08-30T10:34:46.895Z,44.26
2022-08-30T10:35:46.857Z,44.06
2022-08-30T10:36:46.847Z,42.57
2022-08-30T10:37:46.853Z,43.96
2022-08-30T10:38:46.825Z,42.97
2022-08-30T10:39:46.841Z,42.86
2022-08-30T10:40:46.823Z,42.65
2022-08-30T10:41:46.821Z,43.54
2022-08-30T10:42:46.786Z,43.44
2022-08-30T10:43:46.815Z,43.64
2022-08-30T10:44:46.769Z,43.42
2022-08-30T10:45:46.754Z,42.03
2022-08-30T10:46:46.754Z,42.72
2022-08-30T10:47:46.732Z,42.53
2022-08-30T10:48:47.530Z,42.93
2022-08-30T10:49:46.747Z,42.72
2022-08-30T10:50:46.723Z,42.01
2022-08-30T10:51:46.715Z,42.31
2022-08-30T10:52:46.690Z,42.41
2022-08-30T10:53:46.675Z,41.42
2022-08-30T10:54:46.697Z,43.20
2022-08-30T10:55:50.026Z,42.31
2022-08-30T10:56:46.639Z,41.61
2022-08-30T10:57:46.633Z,42.71
2022-08-30T10:58:46.627Z,42.80
2022-08-30T10:59:46.634Z,42.09
2022-08-30T11:00:46.692Z,42.88
2022-08-30T11:01:47.016Z,41.00
2022-08-30T11:02:46.582Z,41.71
2022-08-30T11:03:46.581Z,41.42
2022-08-30T11:04:46.581Z,41.91
2022-08-30T11:05:46.576Z,42.01
2022-08-30T11:06:47.188Z,42.09
2022-08-30T11:07:46.532Z,41.30
2022-08-30T11:08:46.524Z,41.69
2022-08-30T11:09:46.527Z,41.79
2022-08-30T11:10:49.498Z,42.09
2022-08-30T11:11:46.549Z,40.90
2022-08-30T11:12:46.475Z,41.09
2022-08-30T11:13:46.482Z,41.00
2022-08-30T11:14:46.482Z,41.09
2022-08-30T11:15:46.446Z,41.28
2022-08-30T11:16:46.456Z,40.78
2022-08-30T11:17:46.475Z,40.98
2022-08-30T11:18:51.155Z,40.48
2022-08-30T11:19:47.435Z,40.28
2022-08-30T11:20:46.394Z,40.28
2022-08-30T11:21:46.385Z,40.88
2022-08-30T11:22:46.381Z,40.68
2022-08-30T11:23:46.385Z,40.96
2022-08-30T11:24:46.396Z,40.56
2022-08-30T11:25:46.460Z,40.76
2022-08-30T11:26:47.336Z,39.47
2022-08-30T11:27:46.340Z,39.57
2022-08-30T11:28:46.311Z,40.66
2022-08-30T11:29:46.343Z,39.75
2022-08-30T11:30:46.293Z,39.75
2022-08-30T11:31:47.520Z,40.05
2022-08-30T11:32:46.274Z,39.95
2022-08-30T11:33:46.406Z,39.75
2022-08-30T11:34:46.294Z,40.74
2022-08-30T11:35:48.634Z,39.75
2022-08-30T11:36:46.391Z,38.76
2022-08-30T11:37:46.250Z,40.03
2022-08-30T11:38:46.216Z,39.43
2022-08-30T11:39:46.220Z,39.23
2022-08-30T11:40:46.193Z,38.94
2022-08-30T11:41:46.377Z,40.41
2022-08-30T11:42:46.176Z,38.72
2022-08-30T11:43:46.162Z,39.51
2022-08-30T11:44:47.351Z,40.11
2022-08-30T11:45:46.189Z,40.90
2022-08-30T11:46:46.138Z,40.70
2022-08-30T11:47:46.143Z,40.29
2022-08-30T11:48:53.777Z,39.69
2022-08-30T11:49:47.125Z,39.29
2022-08-30T11:50:48.383Z,38.60
2022-08-30T11:52:28.607Z,37.62
2022-08-30T11:52:48.880Z,38.40
2022-08-30T11:53:46.067Z,38.60
2022-08-30T11:54:48.805Z,38.90
2022-08-30T11:55:46.053Z,38.80
2022-08-30T11:56:46.054Z,38.53
2022-08-30T11:57:46.033Z,38.23
2022-08-30T11:58:46.012Z,37.93
2022-08-30T11:59:46.030Z,38.62
2022-08-30T12:00:51.514Z,38.53
2022-08-30T12:01:51.235Z,39.12
2022-08-30T12:02:47.156Z,39.99
2022-08-30T12:03:46.158Z,38.60
2022-08-30T12:04:45.994Z,38.01
2022-08-30T12:05:45.961Z,38.31
2022-08-30T12:06:45.936Z,38.29
2022-08-30T12:07:45.931Z,38.09
2022-08-30T12:08:47.285Z,38.39
2022-08-30T12:09:45.918Z,38.68
2022-08-30T12:10:45.917Z,38.96
2022-08-30T12:11:45.892Z,39.46
2022-08-30T12:12:45.879Z,39.06
2022-08-30T12:13:45.866Z,38.94
2022-08-30T12:14:45.854Z,38.45
2022-08-30T12:15:45.859Z,37.96
2022-08-30T12:16:45.928Z,37.76
2022-08-30T12:17:45.842Z,37.45
2022-08-30T12:18:45.820Z,37.34
2022-08-30T12:19:50.347Z,37.94
2022-08-30T12:20:45.872Z,37.05
2022-08-30T12:21:45.782Z,36.55
2022-08-30T12:22:45.777Z,36.16
2022-08-30T12:23:45.768Z,36.75
2022-08-30T12:24:45.753Z,37.45
2022-08-30T12:25:45.771Z,36.65
2022-08-30T12:26:45.737Z,36.25
2022-08-30T12:27:45.740Z,36.34
2022-08-30T12:28:45.716Z,36.93
2022-08-30T12:29:45.724Z,36.24
2022-08-30T12:30:46.502Z,36.93
2022-08-30T12:31:45.755Z,36.24
2022-08-30T12:32:45.700Z,36.93
2022-08-30T12:33:45.668Z,36.02
2022-08-30T12:34:45.661Z,37.30
2022-08-30T12:35:45.666Z,37.21
2022-08-30T12:36:45.640Z,36.22
2022-08-30T12:37:45.632Z,36.71
2022-08-30T12:38:45.644Z,36.12
2022-08-30T12:39:45.614Z,35.81
2022-08-30T12:40:46.656Z,35.12
2022-08-30T12:41:45.591Z,36.70
2022-08-30T12:42:45.582Z,36.00
2022-08-30T12:43:45.563Z,34.82
2022-08-30T12:44:45.558Z,35.22
2022-08-30T12:45:45.622Z,35.71
2022-08-30T12:46:46.531Z,38.08
2022-08-30T12:47:45.516Z,37.37
2022-08-30T12:48:45.508Z,36.58
2022-08-30T12:49:45.531Z,36.29
2022-08-30T12:50:45.536Z,37.05
2022-08-30T12:51:45.487Z,36.17
2022-08-30T12:52:45.470Z,35.58
2022-08-30T12:53:45.510Z,35.77
2022-08-30T12:54:45.462Z,36.17
2022-08-30T12:55:45.471Z,35.08